sensor_id;sensor_type;location;lat;lon;timestamp;pressure;altitude;pressure_sealevel;temperature;humidity
3524;BME280;1776;53.330;11.498;2023-05-22T00:02:01;26908.38;;;-147.39;46.81
3524;BME280;1776;53.330;11.498;2023-05-22T00:04:27;26942.94;;;-147.39;46.94
3524;BME280;1776;53.330;11.498;2023-05-22T00:06:54;26898.19;;;-147.39;46.90
3524;BME280;1776;53.330;11.498;2023-05-22T00:09:20;26863.59;;;-147.39;47.11
3524;BME280;1776;53.330;11.498;2023-05-22T00:11:46;26851.38;;;-147.39;47.26
3524;BME280;1776;53.330;11.498;2023-05-22T00:14:11;26534.00;;;-147.39;47.37
3524;BME280;1776;53.330;11.498;2023-05-22T00:16:38;26849.34;;;-147.39;47.35
3524;BME280;1776;53.330;11.498;2023-05-22T00:19:03;26928.72;;;-147.39;47.32
3524;BME280;1776;53.330;11.498;2023-05-22T00:21:29;26812.72;;;-147.39;47.30
3524;BME280;1776;53.330;11.498;2023-05-22T00:24:01;26859.53;;;-147.39;47.25
3524;BME280;1776;53.330;11.498;2023-05-22T00:26:27;26890.06;;;-147.39;47.35
3524;BME280;1776;53.330;11.498;2023-05-22T00:28:52;26810.69;;;-147.39;47.26
3524;BME280;1776;53.330;11.498;2023-05-22T00:31:17;26800.53;;;-147.39;47.30
3524;BME280;1776;53.330;11.498;2023-05-22T00:33:42;26800.53;;;-147.39;47.31
3524;BME280;1776;53.330;11.498;2023-05-22T00:36:08;26761.88;;;-147.39;47.35
3524;BME280;1776;53.330;11.498;2023-05-22T00:38:34;26792.38;;;-147.39;47.39
3524;BME280;1776;53.330;11.498;2023-05-22T00:41:01;26806.63;;;-147.39;47.25
3524;BME280;1776;53.330;11.498;2023-05-22T00:43:26;26847.31;;;-147.39;47.16
3524;BME280;1776;53.330;11.498;2023-05-22T00:45:52;26885.97;;;-147.39;47.33
3524;BME280;1776;53.330;11.498;2023-05-22T00:48:19;26721.16;;;-147.39;47.27
3524;BME280;1776;53.330;11.498;2023-05-22T00:50:45;26743.56;;;-147.39;47.35
3524;BME280;1776;53.330;11.498;2023-05-22T00:53:11;26774.06;;;-147.39;47.24
3524;BME280;1776;53.330;11.498;2023-05-22T00:55:37;26725.25;;;-147.39;47.35
3524;BME280;1776;53.330;11.498;2023-05-22T00:58:04;26749.66;;;-147.39;47.28
3524;BME280;1776;53.330;11.498;2023-05-22T01:00:33;26800.53;;;-147.39;47.41
3524;BME280;1776;53.330;11.498;2023-05-22T01:02:59;26774.06;;;-147.39;47.35
3524;BME280;1776;53.330;11.498;2023-05-22T01:05:27;26737.44;;;-147.39;47.05
3524;BME280;1776;53.330;11.498;2023-05-22T01:07:52;26837.16;;;-147.39;47.23
3524;BME280;1776;53.330;11.498;2023-05-22T01:10:17;26692.69;;;-147.39;46.86
3524;BME280;1776;53.330;11.498;2023-05-22T01:18:33;26725.25;;;-147.39;46.71
3524;BME280;1776;53.330;11.498;2023-05-22T01:21:12;26761.88;;;-147.39;46.87
3524;BME280;1776;53.330;11.498;2023-05-22T01:24:13;26696.75;;;-147.39;46.98
3524;BME280;1776;53.330;11.498;2023-05-22T01:29:51;26672.34;;;-147.39;46.88
3524;BME280;1776;53.330;11.498;2023-05-22T01:32:22;26676.41;;;-147.39;46.92
3524;BME280;1776;53.330;11.498;2023-05-22T01:34:52;26680.47;;;-147.39;46.68
3524;BME280;1776;53.330;11.498;2023-05-22T01:37:19;26635.72;;;-147.39;46.66
3524;BME280;1776;53.330;11.498;2023-05-22T01:39:46;26696.75;;;-147.39;46.73
3524;BME280;1776;53.330;11.498;2023-05-22T01:42:12;26676.41;;;-147.39;46.57
3524;BME280;1776;53.330;11.498;2023-05-22T01:44:37;26627.56;;;-147.39;46.45
3524;BME280;1776;53.330;11.498;2023-05-22T01:47:03;26658.09;;;-147.39;46.38
3524;BME280;1776;53.330;11.498;2023-05-22T01:49:31;26643.84;;;-147.39;46.59
3524;BME280;1776;53.330;11.498;2023-05-22T01:54:38;26639.78;;;-147.39;46.47
3524;BME280;1776;53.330;11.498;2023-05-22T01:57:27;26617.41;;;-147.39;46.33
3524;BME280;1776;53.330;11.498;2023-05-22T02:02:23;26649.97;;;-147.39;46.25
3524;BME280;1776;53.330;11.498;2023-05-22T02:04:52;26623.50;;;-147.39;46.28
3524;BME280;1776;53.330;11.498;2023-05-22T02:07:21;26617.41;;;-147.39;46.32
3524;BME280;1776;53.330;11.498;2023-05-22T02:09:47;26649.97;;;-147.39;46.39
3524;BME280;1776;53.330;11.498;2023-05-22T02:12:13;26731.34;;;-147.39;46.17
3524;BME280;1776;53.330;11.498;2023-05-22T02:14:41;26584.84;;;-147.39;46.14
3524;BME280;1776;53.330;11.498;2023-05-22T02:17:07;26615.38;;;-147.39;46.27
3524;BME280;1776;53.330;11.498;2023-05-22T02:19:33;26593.00;;;-147.39;46.25
3524;BME280;1776;53.330;11.498;2023-05-22T02:22:00;26574.69;;;-147.39;46.24
3524;BME280;1776;53.330;11.498;2023-05-22T02:24:25;26601.13;;;-147.39;46.19
3524;BME280;1776;53.330;11.498;2023-05-22T02:26:50;26605.19;;;-147.39;46.16
3524;BME280;1776;53.330;11.498;2023-05-22T02:29:15;26576.72;;;-147.39;46.19
3524;BME280;1776;53.330;11.498;2023-05-22T02:31:41;26574.69;;;-147.39;46.12
3524;BME280;1776;53.330;11.498;2023-05-22T02:34:06;26554.34;;;-147.39;46.08
3524;BME280;1776;53.330;11.498;2023-05-22T02:36:31;26588.91;;;-147.39;46.09
3524;BME280;1776;53.330;11.498;2023-05-22T02:38:59;26558.41;;;-147.39;46.10
3524;BME280;1776;53.330;11.498;2023-05-22T02:41:25;26552.31;;;-147.39;46.13
3524;BME280;1776;53.330;11.498;2023-05-22T02:43:50;26558.41;;;-147.39;46.10
3524;BME280;1776;53.330;11.498;2023-05-22T02:46:15;26676.41;;;-147.39;45.99
3524;BME280;1776;53.330;11.498;2023-05-22T02:48:41;26546.19;;;-147.39;46.17
3524;BME280;1776;53.330;11.498;2023-05-22T02:51:06;26582.81;;;-147.39;46.05
3524;BME280;1776;53.330;11.498;2023-05-22T02:53:31;26558.41;;;-147.39;46.07
3524;BME280;1776;53.330;11.498;2023-05-22T02:55:59;26544.16;;;-147.39;45.88
3524;BME280;1776;53.330;11.498;2023-05-22T02:58:25;26627.56;;;-147.39;46.01
3524;BME280;1776;53.330;11.498;2023-05-22T03:00:51;26521.78;;;-147.39;46.02
3524;BME280;1776;53.330;11.498;2023-05-22T03:03:17;26542.13;;;-147.39;46.33
3524;BME280;1776;53.330;11.498;2023-05-22T03:05:43;26527.88;;;-147.39;46.22
3524;BME280;1776;53.330;11.498;2023-05-22T03:08:10;26485.16;;;-147.39;46.42
3524;BME280;1776;53.330;11.498;2023-05-22T03:10:35;26472.94;;;-147.39;46.34
3524;BME280;1776;53.330;11.498;2023-05-22T03:13:00;26495.34;;;-147.39;46.24
3524;BME280;1776;53.330;11.498;2023-05-22T03:15:25;26501.44;;;-147.39;46.55
3524;BME280;1776;53.330;11.498;2023-05-22T03:17:51;26472.94;;;-147.39;46.53
3524;BME280;1776;53.330;11.498;2023-05-22T03:20:16;26493.28;;;-147.39;46.40
3524;BME280;1776;53.330;11.498;2023-05-22T03:22:43;26491.25;;;-147.39;46.52
3524;BME280;1776;53.330;11.498;2023-05-22T03:25:08;26440.41;;;-147.39;46.63
3524;BME280;1776;53.330;11.498;2023-05-22T03:27:34;26523.81;;;-147.39;46.29
3524;BME280;1776;53.330;11.498;2023-05-22T03:30:01;26481.09;;;-147.39;46.66
3524;BME280;1776;53.330;11.498;2023-05-22T03:32:26;26613.34;;;-147.39;46.71
3524;BME280;1776;53.330;11.498;2023-05-22T03:34:51;26529.91;;;-147.39;46.78
3524;BME280;1776;53.330;11.498;2023-05-22T03:37:16;26558.41;;;-147.39;46.73
3524;BME280;1776;53.330;11.498;2023-05-22T03:39:42;26479.06;;;-147.39;46.59
3524;BME280;1776;53.330;11.498;2023-05-22T03:42:07;26458.72;;;-147.39;46.68
3524;BME280;1776;53.330;11.498;2023-05-22T03:44:33;26479.06;;;-147.39;46.63
3524;BME280;1776;53.330;11.498;2023-05-22T03:46:58;26452.59;;;-147.39;46.65
3524;BME280;1776;53.330;11.498;2023-05-22T03:49:24;26472.94;;;-147.39;46.57
3524;BME280;1776;53.330;11.498;2023-05-22T03:51:49;26462.78;;;-147.39;46.70
3524;BME280;1776;53.330;11.498;2023-05-22T03:54:14;26517.72;;;-147.39;46.60
3524;BME280;1776;53.330;11.498;2023-05-22T03:56:40;26446.50;;;-147.39;46.53
3524;BME280;1776;53.330;11.498;2023-05-22T03:59:05;26464.81;;;-147.39;46.34
3524;BME280;1776;53.330;11.498;2023-05-22T04:01:30;26432.25;;;-147.39;46.40
3524;BME280;1776;53.330;11.498;2023-05-22T04:03:55;26434.28;;;-147.39;46.24
3524;BME280;1776;53.330;11.498;2023-05-22T04:06:21;26464.81;;;-147.39;46.27
3524;BME280;1776;53.330;11.498;2023-05-22T04:08:47;26450.56;;;-147.39;45.99
3524;BME280;1776;53.330;11.498;2023-05-22T04:11:12;26493.28;;;-147.39;45.79
3524;BME280;1776;53.330;11.498;2023-05-22T04:13:40;26440.41;;;-147.39;45.95
3524;BME280;1776;53.330;11.498;2023-05-22T04:16:05;26468.88;;;-147.39;45.80
3524;BME280;1776;53.330;11.498;2023-05-22T04:18:30;26442.44;;;-147.39;45.70
3524;BME280;1776;53.330;11.498;2023-05-22T04:20:56;26497.38;;;-147.39;45.51
3524;BME280;1776;53.330;11.498;2023-05-22T04:23:21;26458.72;;;-147.39;45.58
3524;BME280;1776;53.330;11.498;2023-05-22T04:25:46;26495.34;;;-147.39;45.60
3524;BME280;1776;53.330;11.498;2023-05-22T04:28:12;26509.56;;;-147.39;45.45
3524;BME280;1776;53.330;11.498;2023-05-22T04:30:37;26464.81;;;-147.39;45.65
3524;BME280;1776;53.330;11.498;2023-05-22T04:33:03;26236.97;;;-147.39;45.22
3524;BME280;1776;53.330;11.498;2023-05-22T04:35:30;26513.66;;;-147.39;45.32
3524;BME280;1776;53.330;11.498;2023-05-22T04:37:58;26505.50;;;-147.39;44.86
3524;BME280;1776;53.330;11.498;2023-05-22T04:40:27;26493.28;;;-147.39;45.22
3524;BME280;1776;53.330;11.498;2023-05-22T04:42:57;26483.13;;;-147.39;45.08
3524;BME280;1776;53.330;11.498;2023-05-22T04:45:24;26483.13;;;-147.39;44.76
3524;BME280;1776;53.330;11.498;2023-05-22T04:47:50;26511.59;;;-147.39;44.70
3524;BME280;1776;53.330;11.498;2023-05-22T04:50:17;26495.34;;;-147.39;44.63
3524;BME280;1776;53.330;11.498;2023-05-22T04:52:42;26544.16;;;-147.39;44.66
3524;BME280;1776;53.330;11.498;2023-05-22T04:55:08;26501.44;;;-147.39;44.67
3524;BME280;1776;53.330;11.498;2023-05-22T04:57:36;26084.38;;;-147.39;44.14
3524;BME280;1776;53.330;11.498;2023-05-22T05:00:01;26554.34;;;-147.39;44.00
3524;BME280;1776;53.330;11.498;2023-05-22T05:02:28;26525.84;;;-147.39;44.44
3524;BME280;1776;53.330;11.498;2023-05-22T05:04:54;26560.44;;;-147.39;44.09
3524;BME280;1776;53.330;11.498;2023-05-22T05:07:20;26556.38;;;-147.39;44.02
3524;BME280;1776;53.330;11.498;2023-05-22T05:09:45;26574.69;;;-147.39;44.09
3524;BME280;1776;53.330;11.498;2023-05-22T05:12:10;26566.53;;;-147.39;43.60
3524;BME280;1776;53.330;11.498;2023-05-22T05:14:36;26568.56;;;-147.39;43.69
3524;BME280;1776;53.330;11.498;2023-05-22T05:17:01;26631.66;;;-147.39;43.68
3524;BME280;1776;53.330;11.498;2023-05-22T05:19:26;26607.22;;;-147.39;43.53
3524;BME280;1776;53.330;11.498;2023-05-22T05:21:51;26611.31;;;-147.39;43.39
3524;BME280;1776;53.330;11.498;2023-05-22T05:24:17;26682.50;;;-147.39;43.12
3524;BME280;1776;53.330;11.498;2023-05-22T05:26:43;26652.00;;;-147.39;43.17
3524;BME280;1776;53.330;11.498;2023-05-22T05:29:08;26670.31;;;-147.39;43.05
3524;BME280;1776;53.330;11.498;2023-05-22T05:31:34;26686.59;;;-147.39;42.95
3524;BME280;1776;53.330;11.498;2023-05-22T05:33:59;26690.66;;;-147.39;42.95
3524;BME280;1776;53.330;11.498;2023-05-22T05:36:24;26696.75;;;-147.39;42.96
3524;BME280;1776;53.330;11.498;2023-05-22T05:38:50;26717.09;;;-147.39;43.01
3524;BME280;1776;53.330;11.498;2023-05-22T05:41:15;26790.34;;;-147.39;42.75
3524;BME280;1776;53.330;11.498;2023-05-22T05:43:40;26888.00;;;-147.39;43.13
3524;BME280;1776;53.330;11.498;2023-05-22T05:46:06;26780.19;;;-147.39;42.71
3524;BME280;1776;53.330;11.498;2023-05-22T05:48:31;26765.94;;;-147.39;42.55
3524;BME280;1776;53.330;11.498;2023-05-22T05:50:56;26792.38;;;-147.39;42.73
3524;BME280;1776;53.330;11.498;2023-05-22T05:53:22;26761.88;;;-147.39;42.93
3524;BME280;1776;53.330;11.498;2023-05-22T05:55:47;26814.75;;;-147.39;42.87
3524;BME280;1776;53.330;11.498;2023-05-22T05:58:12;26782.22;;;-147.39;42.69
3524;BME280;1776;53.330;11.498;2023-05-22T06:00:38;26863.59;;;-147.39;42.73
3524;BME280;1776;53.330;11.498;2023-05-22T06:03:03;26810.69;;;-147.39;42.77
3524;BME280;1776;53.330;11.498;2023-05-22T06:05:28;26757.78;;;-147.39;42.67
3524;BME280;1776;53.330;11.498;2023-05-22T06:07:54;26833.06;;;-147.39;42.59
3524;BME280;1776;53.330;11.498;2023-05-22T06:10:22;26863.59;;;-147.39;42.79
3524;BME280;1776;53.330;11.498;2023-05-22T06:12:47;26859.53;;;-147.39;42.54
3524;BME280;1776;53.330;11.498;2023-05-22T06:15:12;26855.47;;;-147.39;42.56
3524;BME280;1776;53.330;11.498;2023-05-22T06:17:38;26875.81;;;-147.39;42.13
3524;BME280;1776;53.330;11.498;2023-05-22T06:20:03;26892.09;;;-147.39;42.06
3524;BME280;1776;53.330;11.498;2023-05-22T06:22:32;26936.84;;;-147.39;41.96
3524;BME280;1776;53.330;11.498;2023-05-22T06:24:57;26967.38;;;-147.39;41.97
3524;BME280;1776;53.330;11.498;2023-05-22T06:27:23;26959.22;;;-147.39;41.80
3524;BME280;1776;53.330;11.498;2023-05-22T06:29:49;26947.03;;;-147.39;41.50
3524;BME280;1776;53.330;11.498;2023-05-22T06:32:15;26965.34;;;-147.39;41.44
3524;BME280;1776;53.330;11.498;2023-05-22T06:34:41;26940.91;;;-147.39;41.46
3524;BME280;1776;53.330;11.498;2023-05-22T06:37:08;27054.88;;;-147.39;41.31
3524;BME280;1776;53.330;11.498;2023-05-22T06:39:33;26973.47;;;-147.39;41.02
3524;BME280;1776;53.330;11.498;2023-05-22T06:41:59;27052.84;;;-147.39;40.89
3524;BME280;1776;53.330;11.498;2023-05-22T06:44:24;27016.19;;;-147.39;41.03
3524;BME280;1776;53.330;11.498;2023-05-22T06:46:50;27024.34;;;-147.39;40.85
3524;BME280;1776;53.330;11.498;2023-05-22T06:49:16;27052.84;;;-147.39;40.96
3524;BME280;1776;53.330;11.498;2023-05-22T06:51:41;27050.78;;;-147.39;41.34
3524;BME280;1776;53.330;11.498;2023-05-22T06:54:07;27071.16;;;-147.39;40.96
3524;BME280;1776;53.330;11.498;2023-05-22T06:56:33;27044.69;;;-147.39;40.70
3524;BME280;1776;53.330;11.498;2023-05-22T06:58:58;27095.56;;;-147.39;40.73
3524;BME280;1776;53.330;11.498;2023-05-22T07:01:24;27227.81;;;-147.39;40.72
3524;BME280;1776;53.330;11.498;2023-05-22T07:03:49;27154.56;;;-147.39;40.66
3524;BME280;1776;53.330;11.498;2023-05-22T07:06:14;27152.53;;;-147.39;40.66
3524;BME280;1776;53.330;11.498;2023-05-22T07:08:39;27158.66;;;-147.39;40.31
3524;BME280;1776;53.330;11.498;2023-05-22T07:11:05;27242.06;;;-147.39;40.53
3524;BME280;1776;53.330;11.498;2023-05-22T07:13:31;27260.38;;;-147.39;40.85
3524;BME280;1776;53.330;11.498;2023-05-22T07:15:56;27274.63;;;-147.39;40.29
3524;BME280;1776;53.330;11.498;2023-05-22T07:18:22;27244.09;;;-147.39;40.09
3524;BME280;1776;53.330;11.498;2023-05-22T07:20:47;27191.19;;;-147.39;40.40
3524;BME280;1776;53.330;11.498;2023-05-22T07:23:13;27242.06;;;-147.39;40.05
3524;BME280;1776;53.330;11.498;2023-05-22T07:25:38;27309.22;;;-147.39;40.30
3524;BME280;1776;53.330;11.498;2023-05-22T07:28:03;27278.69;;;-147.39;40.23
3524;BME280;1776;53.330;11.498;2023-05-22T07:30:36;27311.25;;;-147.39;39.92
3524;BME280;1776;53.330;11.498;2023-05-22T07:33:02;27360.09;;;-147.39;39.65
3524;BME280;1776;53.330;11.498;2023-05-22T07:35:27;27351.97;;;-147.39;39.40
3524;BME280;1776;53.330;11.498;2023-05-22T07:37:53;27384.53;;;-147.39;39.44
3524;BME280;1776;53.330;11.498;2023-05-22T07:40:18;27435.41;;;-147.39;39.52
3524;BME280;1776;53.330;11.498;2023-05-22T07:42:43;27396.72;;;-147.39;39.38
3524;BME280;1776;53.330;11.498;2023-05-22T07:45:09;27445.56;;;-147.39;39.14
3524;BME280;1776;53.330;11.498;2023-05-22T07:47:34;27472.03;;;-147.39;38.69
3524;BME280;1776;53.330;11.498;2023-05-22T07:49:59;27467.94;;;-147.39;38.88
3524;BME280;1776;53.330;11.498;2023-05-22T07:52:28;27492.38;;;-147.39;38.30
3524;BME280;1776;53.330;11.498;2023-05-22T07:54:53;27506.63;;;-147.39;37.63
3524;BME280;1776;53.330;11.498;2023-05-22T07:57:18;27518.81;;;-147.39;37.97
3524;BME280;1776;53.330;11.498;2023-05-22T07:59:44;27612.44;;;-147.39;37.84
3524;BME280;1776;53.330;11.498;2023-05-22T08:02:09;27561.56;;;-147.39;37.36
3524;BME280;1776;53.330;11.498;2023-05-22T08:04:35;27590.06;;;-147.39;37.05
3524;BME280;1776;53.330;11.498;2023-05-22T08:07:00;27502.56;;;-147.39;37.40
3524;BME280;1776;53.330;11.498;2023-05-22T08:09:26;27608.38;;;-147.39;37.25
3524;BME280;1776;53.330;11.498;2023-05-22T08:11:51;27559.53;;;-147.39;37.36
3524;BME280;1776;53.330;11.498;2023-05-22T08:14:16;27649.06;;;-147.39;37.30
3524;BME280;1776;53.330;11.498;2023-05-22T08:16:41;27640.94;;;-147.39;37.20
3524;BME280;1776;53.330;11.498;2023-05-22T08:19:07;27579.88;;;-147.39;37.40
3524;BME280;1776;53.330;11.498;2023-05-22T08:21:32;27630.75;;;-147.39;37.24
3524;BME280;1776;53.330;11.498;2023-05-22T08:23:58;27693.84;;;-147.39;37.37
3524;BME280;1776;53.330;11.498;2023-05-22T08:26:24;27734.56;;;-147.39;37.07
3524;BME280;1776;53.330;11.498;2023-05-22T08:28:50;27754.91;;;-147.39;36.88
3524;BME280;1776;53.330;11.498;2023-05-22T08:31:16;27738.63;;;-147.39;36.55
3524;BME280;1776;53.330;11.498;2023-05-22T08:33:42;27750.84;;;-147.39;36.19
3524;BME280;1776;53.330;11.498;2023-05-22T08:36:07;27832.25;;;-147.39;36.43
3524;BME280;1776;53.330;11.498;2023-05-22T08:38:32;27785.44;;;-147.39;36.25
3524;BME280;1776;53.330;11.498;2023-05-22T08:40:58;27879.06;;;-147.39;36.49
3524;BME280;1776;53.330;11.498;2023-05-22T08:43:23;27822.06;;;-147.39;36.43
3524;BME280;1776;53.330;11.498;2023-05-22T08:45:58;27870.91;;;-147.39;35.92
3524;BME280;1776;53.330;11.498;2023-05-22T08:48:30;27950.28;;;-147.39;36.02
3524;BME280;1776;53.330;11.498;2023-05-22T08:50:57;27970.63;;;-147.39;35.61
3524;BME280;1776;53.330;11.498;2023-05-22T08:53:27;28031.69;;;-147.39;35.42
3524;BME280;1776;53.330;11.498;2023-05-22T08:55:52;28052.06;;;-147.39;34.92
3524;BME280;1776;53.330;11.498;2023-05-22T08:58:19;28060.19;;;-147.39;34.86
3524;BME280;1776;53.330;11.498;2023-05-22T09:00:44;28121.25;;;-147.39;34.64
3524;BME280;1776;53.330;11.498;2023-05-22T09:03:10;28161.97;;;-147.39;34.68
3524;BME280;1776;53.330;11.498;2023-05-22T09:05:38;28198.59;;;-147.39;33.76
3524;BME280;1776;53.330;11.498;2023-05-22T09:08:05;28300.38;;;-147.39;34.01
3524;BME280;1776;53.330;11.498;2023-05-22T09:10:32;28332.94;;;-147.39;34.08
3524;BME280;1776;53.330;11.498;2023-05-22T09:13:05;28402.13;;;-147.39;33.23
3524;BME280;1776;53.330;11.498;2023-05-22T09:15:33;28389.94;;;-147.39;32.81
3524;BME280;1776;53.330;11.498;2023-05-22T09:17:59;28410.28;;;-147.39;32.83
3524;BME280;1776;53.330;11.498;2023-05-22T09:20:24;28387.91;;;-147.39;33.09
3524;BME280;1776;53.330;11.498;2023-05-22T09:22:50;28497.81;;;-147.39;32.85
3524;BME280;1776;53.330;11.498;2023-05-22T09:25:19;28510.03;;;-147.39;32.63
3524;BME280;1776;53.330;11.498;2023-05-22T09:27:46;28520.19;;;-147.39;32.93
3524;BME280;1776;53.330;11.498;2023-05-22T09:30:14;28552.78;;;-147.39;32.61
3524;BME280;1776;53.330;11.498;2023-05-22T09:32:40;28630.13;;;-147.39;32.97
3524;BME280;1776;53.330;11.498;2023-05-22T09:35:05;28695.25;;;-147.39;32.66
3524;BME280;1776;53.330;11.498;2023-05-22T09:37:35;28699.34;;;-147.39;32.39
3524;BME280;1776;53.330;11.498;2023-05-22T09:40:09;28725.81;;;-147.39;32.22
3524;BME280;1776;53.330;11.498;2023-05-22T09:42:35;28754.31;;;-147.39;32.08
3524;BME280;1776;53.330;11.498;2023-05-22T09:45:05;28823.50;;;-147.39;31.83
3524;BME280;1776;53.330;11.498;2023-05-22T09:47:31;28801.13;;;-147.39;31.17
3524;BME280;1776;53.330;11.498;2023-05-22T09:50:02;28898.84;;;-147.39;31.28
3524;BME280;1776;53.330;11.498;2023-05-22T09:52:33;28925.31;;;-147.39;30.61
3524;BME280;1776;53.330;11.498;2023-05-22T09:55:03;28976.19;;;-147.39;30.37
3524;BME280;1776;53.330;11.498;2023-05-22T09:57:31;28933.44;;;-147.39;31.08
3524;BME280;1776;53.330;11.498;2023-05-22T09:59:58;28933.44;;;-147.39;30.11
3524;BME280;1776;53.330;11.498;2023-05-22T10:02:25;28933.44;;;-147.39;30.62
3524;BME280;1776;53.330;11.498;2023-05-22T10:04:51;29012.84;;;-147.39;30.33
3524;BME280;1776;53.330;11.498;2023-05-22T10:07:36;29153.31;;;-147.39;29.91
3524;BME280;1776;53.330;11.498;2023-05-22T10:10:10;29216.44;;;-147.39;29.96
3524;BME280;1776;53.330;11.498;2023-05-22T10:12:44;29210.31;;;-147.39;29.69
3524;BME280;1776;53.330;11.498;2023-05-22T10:15:12;29185.88;;;-147.39;30.54
3524;BME280;1776;53.330;11.498;2023-05-22T10:17:38;29350.81;;;-147.39;30.11
3524;BME280;1776;53.330;11.498;2023-05-22T10:20:05;29377.28;;;-147.39;29.97
3524;BME280;1776;53.330;11.498;2023-05-22T10:22:35;29442.44;;;-147.39;30.60
3524;BME280;1776;53.330;11.498;2023-05-22T10:25:02;29385.41;;;-147.39;28.88
3524;BME280;1776;53.330;11.498;2023-05-22T10:27:27;29301.94;;;-147.39;29.03
3524;BME280;1776;53.330;11.498;2023-05-22T10:32:54;29432.25;;;-147.39;29.55
3524;BME280;1776;53.330;11.498;2023-05-22T10:35:28;29332.47;;;-147.39;29.59
3524;BME280;1776;53.330;11.498;2023-05-22T10:41:04;29385.41;;;-147.39;28.94
3524;BME280;1776;53.330;11.498;2023-05-22T10:43:30;29326.38;;;-147.39;29.45
3524;BME280;1776;53.330;11.498;2023-05-22T10:46:03;29529.97;;;-147.39;29.23
3524;BME280;1776;53.330;11.498;2023-05-22T10:48:36;29452.59;;;-147.39;28.75
3524;BME280;1776;53.330;11.498;2023-05-22T10:51:02;29424.09;;;-147.39;28.37
3524;BME280;1776;53.330;11.498;2023-05-22T10:53:31;29369.13;;;-147.39;28.99
3524;BME280;1776;53.330;11.498;2023-05-22T10:55:57;29503.50;;;-147.39;29.26
3524;BME280;1776;53.330;11.498;2023-05-22T10:58:31;29509.63;;;-147.39;29.06
3524;BME280;1776;53.330;11.498;2023-05-22T11:01:19;29521.84;;;-147.39;29.03
3524;BME280;1776;53.330;11.498;2023-05-22T11:03:54;29641.97;;;-147.39;29.11
3524;BME280;1776;53.330;11.498;2023-05-22T11:06:30;29776.34;;;-147.39;29.01
3524;BME280;1776;53.330;11.498;2023-05-22T11:08:55;29815.03;;;-147.39;28.72
3524;BME280;1776;53.330;11.498;2023-05-22T11:11:24;29827.25;;;-147.39;28.94
3524;BME280;1776;53.330;11.498;2023-05-22T11:13:51;29843.53;;;-147.39;28.09
3524;BME280;1776;53.330;11.498;2023-05-22T11:16:16;29906.66;;;-147.39;28.30
3524;BME280;1776;53.330;11.498;2023-05-22T11:18:42;30028.84;;;-147.39;27.95
3524;BME280;1776;53.330;11.498;2023-05-22T11:21:09;30065.50;;;-147.39;28.13
3524;BME280;1776;53.330;11.498;2023-05-22T11:23:35;30053.28;;;-147.39;28.43
3524;BME280;1776;53.330;11.498;2023-05-22T11:26:20;30077.72;;;-147.39;28.02
3524;BME280;1776;53.330;11.498;2023-05-22T11:28:48;30144.94;;;-147.39;28.20
3524;BME280;1776;53.330;11.498;2023-05-22T11:31:16;30201.94;;;-147.39;28.50
3524;BME280;1776;53.330;11.498;2023-05-22T11:33:41;30248.78;;;-147.39;28.35
3524;BME280;1776;53.330;11.498;2023-05-22T11:36:08;30212.13;;;-147.39;27.90
3524;BME280;1776;53.330;11.498;2023-05-22T11:38:33;30248.78;;;-147.39;27.57
3524;BME280;1776;53.330;11.498;2023-05-22T11:40:59;30354.69;;;-147.39;27.96
3524;BME280;1776;53.330;11.498;2023-05-22T11:43:30;30413.75;;;-147.39;27.96
3524;BME280;1776;53.330;11.498;2023-05-22T11:46:09;30440.22;;;-147.39;27.55
3524;BME280;1776;53.330;11.498;2023-05-22T11:48:35;30405.59;;;-147.39;27.25
3524;BME280;1776;53.330;11.498;2023-05-22T11:51:03;30446.31;;;-147.39;27.89
3524;BME280;1776;53.330;11.498;2023-05-22T11:53:33;30407.63;;;-147.39;27.53
3524;BME280;1776;53.330;11.498;2023-05-22T11:56:02;30448.38;;;-147.39;27.03
3524;BME280;1776;53.330;11.498;2023-05-22T11:58:29;30468.72;;;-147.39;27.18
3524;BME280;1776;53.330;11.498;2023-05-22T12:01:01;30599.06;;;-147.39;27.13
3524;BME280;1776;53.330;11.498;2023-05-22T12:03:27;30727.38;;;-147.39;26.62
3524;BME280;1776;53.330;11.498;2023-05-22T12:05:52;30790.53;;;-147.39;27.67
3524;BME280;1776;53.330;11.498;2023-05-22T12:08:18;30796.63;;;-147.39;26.99
3524;BME280;1776;53.330;11.498;2023-05-22T12:10:50;30731.47;;;-147.39;26.29
3524;BME280;1776;53.330;11.498;2023-05-22T12:13:27;30597.03;;;-147.39;26.99
3524;BME280;1776;53.330;11.498;2023-05-22T12:15:54;30617.41;;;-147.39;26.99
3524;BME280;1776;53.330;11.498;2023-05-22T12:18:20;30652.03;;;-147.39;26.75
3524;BME280;1776;53.330;11.498;2023-05-22T12:20:45;30715.16;;;-147.39;26.73
3524;BME280;1776;53.330;11.498;2023-05-22T12:23:21;30904.59;;;-147.39;26.62
3524;BME280;1776;53.330;11.498;2023-05-22T12:25:46;30900.50;;;-147.39;26.88
3524;BME280;1776;53.330;11.498;2023-05-22T12:28:11;30951.44;;;-147.39;26.75
3524;BME280;1776;53.330;11.498;2023-05-22T12:30:41;31039.00;;;-147.39;27.06
3524;BME280;1776;53.330;11.498;2023-05-22T12:33:11;31102.16;;;-147.39;26.86
3524;BME280;1776;53.330;11.498;2023-05-22T12:35:37;30914.78;;;-147.39;26.68
3524;BME280;1776;53.330;11.498;2023-05-22T12:38:03;30959.56;;;-147.39;27.04
3524;BME280;1776;53.330;11.498;2023-05-22T12:40:28;30880.16;;;-147.39;26.70
3524;BME280;1776;53.330;11.498;2023-05-22T12:42:53;30853.66;;;-147.39;27.12
3524;BME280;1776;53.330;11.498;2023-05-22T12:45:18;30837.38;;;-147.39;26.94
3524;BME280;1776;53.330;11.498;2023-05-22T12:47:44;31053.28;;;-147.39;26.56
3524;BME280;1776;53.330;11.498;2023-05-22T12:50:09;31108.28;;;-147.39;26.72
3524;BME280;1776;53.330;11.498;2023-05-22T12:52:35;31195.84;;;-147.39;26.22
3524;BME280;1776;53.330;11.498;2023-05-22T12:55:00;31267.16;;;-147.39;26.36
3524;BME280;1776;53.330;11.498;2023-05-22T12:57:25;31259.00;;;-147.39;26.69
3524;BME280;1776;53.330;11.498;2023-05-22T12:59:51;31224.38;;;-147.39;26.33
3524;BME280;1776;53.330;11.498;2023-05-22T13:02:16;31246.78;;;-147.39;26.51
3524;BME280;1776;53.330;11.498;2023-05-22T13:04:41;31098.09;;;-147.39;26.31
3524;BME280;1776;53.330;11.498;2023-05-22T13:07:07;31411.78;;;-147.39;26.50
3524;BME280;1776;53.330;11.498;2023-05-22T13:09:32;31316.03;;;-147.39;26.37